sensor_id;sensor_type;location;lat;lon;timestamp;pressure;altitude;pressure_sealevel;temperature;humidity
53689;BME280;39583;54.682;30.662;2023-05-09T05:50:49;101155.91;;;11.12;43.02
53689;BME280;39583;54.682;30.662;2023-05-09T05:53:18;101159.09;;;11.45;43.63
53689;BME280;39583;54.682;30.662;2023-05-09T05:55:44;101159.41;;;11.65;43.08
53689;BME280;39583;54.682;30.662;2023-05-09T05:58:11;101156.38;;;11.83;42.46
53689;BME280;39583;54.682;30.662;2023-05-09T06:00:38;101163.53;;;12.05;42.09
53689;BME280;39583;54.682;30.662;2023-05-09T06:03:05;101155.19;;;12.22;42.27
53689;BME280;39583;54.682;30.662;2023-05-09T06:05:43;101157.72;;;12.38;41.88
53689;BME280;39583;54.682;30.662;2023-05-09T06:08:10;101161.06;;;12.40;40.99
53689;BME280;39583;54.682;30.662;2023-05-09T06:10:36;101159.66;;;12.29;40.70
53689;BME280;39583;54.682;30.662;2023-05-09T06:13:02;101154.00;;;12.24;40.49
53689;BME280;39583;54.682;30.662;2023-05-09T06:15:27;101160.06;;;12.26;40.35
53689;BME280;39583;54.682;30.662;2023-05-09T06:17:54;101145.03;;;12.24;40.15
53689;BME280;39583;54.682;30.662;2023-05-09T06:20:20;101157.41;;;12.33;38.73
53689;BME280;39583;54.682;30.662;2023-05-09T06:22:46;101155.56;;;12.33;38.38
53689;BME280;39583;54.682;30.662;2023-05-09T06:25:12;101157.41;;;12.33;38.33
53689;BME280;39583;54.682;30.662;2023-05-09T06:27:38;101152.34;;;12.45;38.46
53689;BME280;39583;54.682;30.662;2023-05-09T06:30:05;101150.06;;;12.63;38.03
53689;BME280;39583;54.682;30.662;2023-05-09T06:32:31;101151.88;;;12.56;37.31
53689;BME280;39583;54.682;30.662;2023-05-09T06:34:58;101153.19;;;12.45;36.99
53689;BME280;39583;54.682;30.662;2023-05-09T06:37:26;101148.00;;;12.44;37.22
53689;BME280;39583;54.682;30.662;2023-05-09T06:39:53;101140.53;;;12.46;36.83
53689;BME280;39583;54.682;30.662;2023-05-09T06:42:19;101145.19;;;12.52;36.26
53689;BME280;39583;54.682;30.662;2023-05-09T06:44:46;101137.75;;;12.60;36.27
53689;BME280;39583;54.682;30.662;2023-05-09T06:47:12;101137.22;;;12.65;36.11
53689;BME280;39583;54.682;30.662;2023-05-09T06:49:38;101132.06;;;12.70;35.86
53689;BME280;39583;54.682;30.662;2023-05-09T06:52:04;101140.47;;;12.82;36.03
53689;BME280;39583;54.682;30.662;2023-05-09T06:54:29;101142.59;;;12.86;35.31
53689;BME280;39583;54.682;30.662;2023-05-09T06:56:55;101137.38;;;12.85;35.06
53689;BME280;39583;54.682;30.662;2023-05-09T06:59:21;101132.19;;;12.83;34.88
53689;BME280;39583;54.682;30.662;2023-05-09T07:01:47;101128.59;;;12.76;34.43
53689;BME280;39583;54.682;30.662;2023-05-09T07:04:13;101130.50;;;12.82;34.38
53689;BME280;39583;54.682;30.662;2023-05-09T07:06:39;101125.41;;;12.94;34.33
53689;BME280;39583;54.682;30.662;2023-05-09T07:09:04;101125.84;;;12.97;34.21
53689;BME280;39583;54.682;30.662;2023-05-09T07:11:34;101095.16;;;12.84;33.69
53689;BME280;39583;54.682;30.662;2023-05-09T07:14:01;101116.41;;;12.87;33.79
53689;BME280;39583;54.682;30.662;2023-05-09T07:16:27;101121.44;;;12.90;33.83
53689;BME280;39583;54.682;30.662;2023-05-09T07:18:54;101128.56;;;12.97;33.69
53689;BME280;39583;54.682;30.662;2023-05-09T07:21:20;101123.22;;;12.83;32.22
53689;BME280;39583;54.682;30.662;2023-05-09T07:23:46;101123.19;;;12.76;32.58
53689;BME280;39583;54.682;30.662;2023-05-09T07:26:12;101122.59;;;12.81;32.04
53689;BME280;39583;54.682;30.662;2023-05-09T07:28:38;101117.31;;;12.73;31.19
53689;BME280;39583;54.682;30.662;2023-05-09T07:31:04;101119.75;;;12.67;31.52
53689;BME280;39583;54.682;30.662;2023-05-09T07:33:31;101114.38;;;12.67;31.71
53689;BME280;39583;54.682;30.662;2023-05-09T07:35:58;101106.97;;;12.76;32.20
53689;BME280;39583;54.682;30.662;2023-05-09T07:38:24;101107.31;;;12.94;31.85
53689;BME280;39583;54.682;30.662;2023-05-09T07:40:50;101105.38;;;12.88;30.85
53689;BME280;39583;54.682;30.662;2023-05-09T07:43:18;101111.38;;;12.84;31.29
53689;BME280;39583;54.682;30.662;2023-05-09T07:45:44;101105.25;;;12.96;31.47
53689;BME280;39583;54.682;30.662;2023-05-09T07:48:10;101096.47;;;13.16;31.66
53689;BME280;39583;54.682;30.662;2023-05-09T07:50:37;101087.59;;;13.22;32.00
53689;BME280;39583;54.682;30.662;2023-05-09T07:53:03;101089.91;;;13.25;31.59
53689;BME280;39583;54.682;30.662;2023-05-09T07:55:29;101087.81;;;13.27;31.59
53689;BME280;39583;54.682;30.662;2023-05-09T07:57:54;101080.94;;;13.24;30.58
53689;BME280;39583;54.682;30.662;2023-05-09T08:00:21;101084.81;;;13.15;30.28
53689;BME280;39583;54.682;30.662;2023-05-09T08:02:50;101087.03;;;13.05;29.98
53689;BME280;39583;54.682;30.662;2023-05-09T08:05:16;101087.59;;;13.00;29.11
53689;BME280;39583;54.682;30.662;2023-05-09T08:07:42;101072.22;;;13.01;29.92
53689;BME280;39583;54.682;30.662;2023-05-09T08:10:08;101072.06;;;13.09;29.91
53689;BME280;39583;54.682;30.662;2023-05-09T08:12:34;101056.91;;;13.15;30.06
53689;BME280;39583;54.682;30.662;2023-05-09T08:15:00;101070.34;;;13.23;30.17
53689;BME280;39583;54.682;30.662;2023-05-09T08:17:26;101070.19;;;13.31;30.22
53689;BME280;39583;54.682;30.662;2023-05-09T08:19:52;101065.28;;;13.48;30.09
53689;BME280;39583;54.682;30.662;2023-05-09T08:22:18;101056.59;;;13.59;30.05
53689;BME280;39583;54.682;30.662;2023-05-09T08:24:45;101057.38;;;13.46;29.81
53689;BME280;39583;54.682;30.662;2023-05-09T08:27:12;101060.69;;;13.42;28.65
53689;BME280;39583;54.682;30.662;2023-05-09T08:29:42;101062.50;;;13.35;28.54
53689;BME280;39583;54.682;30.662;2023-05-09T08:32:08;101059.19;;;13.39;29.51
53689;BME280;39583;54.682;30.662;2023-05-09T08:34:34;101054.88;;;13.45;29.32
53689;BME280;39583;54.682;30.662;2023-05-09T08:37:01;101056.94;;;13.43;29.38
53689;BME280;39583;54.682;30.662;2023-05-09T08:39:27;101054.81;;;13.38;28.98
53689;BME280;39583;54.682;30.662;2023-05-09T08:41:58;101033.16;;;13.32;29.17
53689;BME280;39583;54.682;30.662;2023-05-09T08:44:25;101034.41;;;13.36;28.98
53689;BME280;39583;54.682;30.662;2023-05-09T08:46:55;101043.78;;;13.40;29.02
53689;BME280;39583;54.682;30.662;2023-05-09T08:49:23;101028.81;;;13.37;29.00
53689;BME280;39583;54.682;30.662;2023-05-09T08:51:49;101032.13;;;13.33;28.88
53689;BME280;39583;54.682;30.662;2023-05-09T08:54:16;101033.78;;;13.34;28.40
53689;BME280;39583;54.682;30.662;2023-05-09T08:56:41;101024.47;;;13.43;28.69
53689;BME280;39583;54.682;30.662;2023-05-09T08:59:08;101028.09;;;13.63;28.80
53689;BME280;39583;54.682;30.662;2023-05-09T09:01:35;101030.25;;;13.81;29.12
53689;BME280;39583;54.682;30.662;2023-05-09T09:04:05;101023.44;;;13.98;28.89
53689;BME280;39583;54.682;30.662;2023-05-09T09:06:34;101020.66;;;13.78;28.54
53689;BME280;39583;54.682;30.662;2023-05-09T09:09:01;101021.63;;;13.64;28.96
53689;BME280;39583;54.682;30.662;2023-05-09T09:11:31;101017.50;;;13.68;28.75
53689;BME280;39583;54.682;30.662;2023-05-09T09:14:00;101021.94;;;13.82;28.86
53689;BME280;39583;54.682;30.662;2023-05-09T09:16:28;101017.78;;;13.93;28.75
53689;BME280;39583;54.682;30.662;2023-05-09T09:18:54;101011.94;;;13.90;28.44
53689;BME280;39583;54.682;30.662;2023-05-09T09:21:21;101009.06;;;13.98;28.66
53689;BME280;39583;54.682;30.662;2023-05-09T09:23:48;100991.28;;;13.75;28.14
53689;BME280;39583;54.682;30.662;2023-05-09T09:26:14;101009.66;;;13.86;28.50
53689;BME280;39583;54.682;30.662;2023-05-09T09:28:41;101008.59;;;13.81;27.94
53689;BME280;39583;54.682;30.662;2023-05-09T09:31:24;100996.28;;;13.78;28.26
53689;BME280;39583;54.682;30.662;2023-05-09T09:33:50;100991.50;;;13.74;27.92
53689;BME280;39583;54.682;30.662;2023-05-09T09:36:25;100988.16;;;13.78;27.77
53689;BME280;39583;54.682;30.662;2023-05-09T09:38:57;100988.41;;;13.90;28.53
53689;BME280;39583;54.682;30.662;2023-05-09T09:41:36;100990.09;;;13.98;28.10
53689;BME280;39583;54.682;30.662;2023-05-09T09:44:12;100978.06;;;14.20;28.34
53689;BME280;39583;54.682;30.662;2023-05-09T09:46:48;100973.06;;;14.37;28.75
53689;BME280;39583;54.682;30.662;2023-05-09T09:49:19;100981.03;;;14.52;28.59
53689;BME280;39583;54.682;30.662;2023-05-09T09:51:56;100981.03;;;14.71;28.66
53689;BME280;39583;54.682;30.662;2023-05-09T09:54:25;100988.94;;;14.86;28.66
53689;BME280;39583;54.682;30.662;2023-05-09T09:56:52;100980.56;;;15.01;28.45
53689;BME280;39583;54.682;30.662;2023-05-09T09:59:20;100981.00;;;14.78;27.64
53689;BME280;39583;54.682;30.662;2023-05-09T10:01:54;100979.16;;;14.65;27.86
53689;BME280;39583;54.682;30.662;2023-05-09T10:04:20;100978.72;;;14.68;28.30
53689;BME280;39583;54.682;30.662;2023-05-09T10:06:57;100976.84;;;14.75;27.99
53689;BME280;39583;54.682;30.662;2023-05-09T10:09:25;100980.78;;;14.80;28.03
53689;BME280;39583;54.682;30.662;2023-05-09T10:11:53;100968.66;;;14.95;27.91
53689;BME280;39583;54.682;30.662;2023-05-09T10:14:21;100972.44;;;15.01;27.46
53689;BME280;39583;54.682;30.662;2023-05-09T10:16:49;100969.75;;;14.81;26.86
53689;BME280;39583;54.682;30.662;2023-05-09T10:19:20;100965.59;;;14.72;27.11
53689;BME280;39583;54.682;30.662;2023-05-09T10:21:54;100967.66;;;14.77;27.14
53689;BME280;39583;54.682;30.662;2023-05-09T10:24:40;100960.56;;;14.82;26.97
53689;BME280;39583;54.682;30.662;2023-05-09T10:27:10;100963.88;;;14.84;26.63
53689;BME280;39583;54.682;30.662;2023-05-09T10:29:40;100963.69;;;14.79;26.29
53689;BME280;39583;54.682;30.662;2023-05-09T10:32:22;100953.06;;;14.71;26.53
53689;BME280;39583;54.682;30.662;2023-05-09T10:34:53;100943.69;;;14.73;26.62
53689;BME280;39583;54.682;30.662;2023-05-09T10:37:23;100949.34;;;14.72;26.26
53689;BME280;39583;54.682;30.662;2023-05-09T10:39:50;100951.00;;;14.73;26.61
53689;BME280;39583;54.682;30.662;2023-05-09T10:42:18;100950.16;;;14.86;26.50
53689;BME280;39583;54.682;30.662;2023-05-09T10:44:45;100948.00;;;15.01;26.51
53689;BME280;39583;54.682;30.662;2023-05-09T10:47:12;100939.63;;;15.09;26.77
53689;BME280;39583;54.682;30.662;2023-05-09T10:49:39;100938.34;;;15.18;27.08
53689;BME280;39583;54.682;30.662;2023-05-09T10:52:05;100935.81;;;15.30;27.08
53689;BME280;39583;54.682;30.662;2023-05-09T10:54:31;100930.41;;;15.23;26.32
53689;BME280;39583;54.682;30.662;2023-05-09T10:57:01;100929.00;;;15.08;25.95
53689;BME280;39583;54.682;30.662;2023-05-09T10:59:36;100921.91;;;15.07;26.05
53689;BME280;39583;54.682;30.662;2023-05-09T11:02:03;100921.22;;;15.24;26.23
53689;BME280;39583;54.682;30.662;2023-05-09T11:04:30;100916.81;;;15.30;26.08
53689;BME280;39583;54.682;30.662;2023-05-09T11:06:58;100906.84;;;15.24;25.59
53689;BME280;39583;54.682;30.662;2023-05-09T11:09:31;100901.81;;;15.27;26.38
53689;BME280;39583;54.682;30.662;2023-05-09T11:14:48;100894.38;;;15.48;26.55
53689;BME280;39583;54.682;30.662;2023-05-09T11:25:13;100889.41;;;15.83;25.83
53689;BME280;39583;54.682;30.662;2023-05-09T11:27:46;100880.41;;;15.82;25.30
53689;BME280;39583;54.682;30.662;2023-05-09T11:30:15;100876.03;;;15.81;25.44
53689;BME280;39583;54.682;30.662;2023-05-09T11:32:50;100885.16;;;15.93;25.52
53689;BME280;39583;54.682;30.662;2023-05-09T11:35:18;100883.00;;;16.02;25.11
53689;BME280;39583;54.682;30.662;2023-05-09T11:37:47;100866.19;;;16.12;25.84
53689;BME280;39583;54.682;30.662;2023-05-09T11:40:15;100862.03;;;16.34;26.02
53689;BME280;39583;54.682;30.662;2023-05-09T11:42:43;100855.16;;;16.50;25.47
53689;BME280;39583;54.682;30.662;2023-05-09T11:45:11;100850.56;;;16.50;25.85
53689;BME280;39583;54.682;30.662;2023-05-09T11:47:37;100864.94;;;16.58;25.69
53689;BME280;39583;54.682;30.662;2023-05-09T11:50:11;100847.31;;;16.60;26.04
53689;BME280;39583;54.682;30.662;2023-05-09T11:52:38;100860.13;;;16.78;25.63
53689;BME280;39583;54.682;30.662;2023-05-09T11:55:06;100843.28;;;16.69;25.49
53689;BME280;39583;54.682;30.662;2023-05-09T11:57:34;100856.97;;;16.81;25.41
53689;BME280;39583;54.682;30.662;2023-05-09T12:00:01;100852.81;;;16.97;25.96
53689;BME280;39583;54.682;30.662;2023-05-09T12:02:31;100843.47;;;17.04;25.52
53689;BME280;39583;54.682;30.662;2023-05-09T12:05:12;100846.75;;;16.95;25.70
53689;BME280;39583;54.682;30.662;2023-05-09T12:07:39;100840.38;;;16.46;25.71
53689;BME280;39583;54.682;30.662;2023-05-09T12:10:10;100839.63;;;16.14;26.05
53689;BME280;39583;54.682;30.662;2023-05-09T12:12:45;100835.13;;;16.26;26.03
53689;BME280;39583;54.682;30.662;2023-05-09T12:15:11;100824.16;;;16.58;25.99
53689;BME280;39583;54.682;30.662;2023-05-09T12:17:39;100824.84;;;16.90;26.14
53689;BME280;39583;54.682;30.662;2023-05-09T12:20:05;100816.25;;;17.23;25.43
53689;BME280;39583;54.682;30.662;2023-05-09T12:22:32;100821.03;;;17.39;25.18
53689;BME280;39583;54.682;30.662;2023-05-09T12:25:04;100802.59;;;17.71;25.69
53689;BME280;39583;54.682;30.662;2023-05-09T12:27:35;100804.03;;;17.85;25.44
53689;BME280;39583;54.682;30.662;2023-05-09T12:30:03;100804.63;;;17.99;25.29
53689;BME280;39583;54.682;30.662;2023-05-09T12:32:33;100801.66;;;18.01;25.47
53689;BME280;39583;54.682;30.662;2023-05-09T12:35:01;100796.56;;;18.27;25.32
53689;BME280;39583;54.682;30.662;2023-05-09T12:37:29;100800.53;;;18.60;24.32
53689;BME280;39583;54.682;30.662;2023-05-09T12:40:03;100794.50;;;18.58;24.01
53689;BME280;39583;54.682;30.662;2023-05-09T12:42:34;100789.69;;;18.25;24.27
53689;BME280;39583;54.682;30.662;2023-05-09T12:45:01;100797.28;;;17.88;23.67
53689;BME280;39583;54.682;30.662;2023-05-09T12:47:28;100786.72;;;17.38;24.39
53689;BME280;39583;54.682;30.662;2023-05-09T12:49:59;100795.31;;;16.93;25.02
53689;BME280;39583;54.682;30.662;2023-05-09T12:52:33;100791.50;;;16.58;24.65
53689;BME280;39583;54.682;30.662;2023-05-09T12:57:32;100790.28;;;16.17;25.16
53689;BME280;39583;54.682;30.662;2023-05-09T12:59:58;100780.97;;;16.06;24.99
53689;BME280;39583;54.682;30.662;2023-05-09T13:02:25;100776.75;;;16.10;25.35
53689;BME280;39583;54.682;30.662;2023-05-09T13:07:41;100778.72;;;16.03;25.34
53689;BME280;39583;54.682;30.662;2023-05-09T13:10:18;100771.78;;;16.26;25.40
53689;BME280;39583;54.682;30.662;2023-05-09T13:12:47;100765.16;;;16.76;24.94
53689;BME280;39583;54.682;30.662;2023-05-09T13:15:14;100766.78;;;17.26;24.79
53689;BME280;39583;54.682;30.662;2023-05-09T13:17:41;100755.41;;;17.59;24.61
53689;BME280;39583;54.682;30.662;2023-05-09T13:20:07;100753.25;;;17.61;23.78
53689;BME280;39583;54.682;30.662;2023-05-09T13:22:33;100754.13;;;17.20;23.79
53689;BME280;39583;54.682;30.662;2023-05-09T13:24:59;100751.31;;;16.96;24.06
53689;BME280;39583;54.682;30.662;2023-05-09T13:27:26;100750.25;;;16.97;24.60
53689;BME280;39583;54.682;30.662;2023-05-09T13:29:54;100744.78;;;17.27;24.27
53689;BME280;39583;54.682;30.662;2023-05-09T13:32:20;100741.22;;;17.68;23.78
53689;BME280;39583;54.682;30.662;2023-05-09T13:34:46;100741.09;;;18.22;23.79
53689;BME280;39583;54.682;30.662;2023-05-09T13:37:13;100741.84;;;18.69;23.09
53689;BME280;39583;54.682;30.662;2023-05-09T13:39:39;100730.28;;;18.91;23.17
53689;BME280;39583;54.682;30.662;2023-05-09T13:42:05;100729.88;;;19.27;22.82
53689;BME280;39583;54.682;30.662;2023-05-09T13:44:31;100725.59;;;19.65;22.75
53689;BME280;39583;54.682;30.662;2023-05-09T13:46:57;100724.13;;;20.13;22.33
53689;BME280;39583;54.682;30.662;2023-05-09T13:49:25;100713.13;;;20.29;22.58
53689;BME280;39583;54.682;30.662;2023-05-09T13:51:55;100721.31;;;20.08;22.30
53689;BME280;39583;54.682;30.662;2023-05-09T13:54:21;100723.13;;;19.80;22.37
53689;BME280;39583;54.682;30.662;2023-05-09T13:56:48;100719.53;;;19.63;22.10
53689;BME280;39583;54.682;30.662;2023-05-09T13:59:15;100723.06;;;19.47;22.56
53689;BME280;39583;54.682;30.662;2023-05-09T14:01:42;100715.13;;;19.45;22.59
53689;BME280;39583;54.682;30.662;2023-05-09T14:04:07;100723.41;;;19.33;21.76
53689;BME280;39583;54.682;30.662;2023-05-09T14:06:33;100721.84;;;18.92;21.79
53689;BME280;39583;54.682;30.662;2023-05-09T14:08:59;100718.47;;;18.62;22.16
53689;BME280;39583;54.682;30.662;2023-05-09T14:11:25;100721.34;;;18.55;22.27
53689;BME280;39583;54.682;30.662;2023-05-09T14:13:51;100723.72;;;18.63;22.30
53689;BME280;39583;54.682;30.662;2023-05-09T14:16:18;100726.91;;;18.60;22.24
53689;BME280;39583;54.682;30.662;2023-05-09T14:18:44;100715.94;;;18.32;22.83
53689;BME280;39583;54.682;30.662;2023-05-09T14:21:10;100718.72;;;17.96;22.90
53689;BME280;39583;54.682;30.662;2023-05-09T14:23:36;100720.69;;;17.54;23.07
53689;BME280;39583;54.682;30.662;2023-05-09T14:26:02;100719.56;;;17.20;23.62
53689;BME280;39583;54.682;30.662;2023-05-09T14:28:28;100714.94;;;16.91;24.03
53689;BME280;39583;54.682;30.662;2023-05-09T14:30:54;100717.16;;;16.64;23.77
53689;BME280;39583;54.682;30.662;2023-05-09T14:33:22;100711.16;;;16.43;23.68
53689;BME280;39583;54.682;30.662;2023-05-09T14:35:48;100714.16;;;16.53;23.85
53689;BME280;39583;54.682;30.662;2023-05-09T14:38:14;100711.75;;;16.82;23.66
53689;BME280;39583;54.682;30.662;2023-05-09T14:40:40;100709.50;;;16.91;23.42
53689;BME280;39583;54.682;30.662;2023-05-09T14:43:06;100708.50;;;16.73;23.73
53689;BME280;39583;54.682;30.662;2023-05-09T14:45:34;100706.16;;;16.77;24.08
53689;BME280;39583;54.682;30.662;2023-05-09T14:48:00;100707.03;;;16.89;24.05
53689;BME280;39583;54.682;30.662;2023-05-09T14:50:30;100701.13;;;16.92;24.25
53689;BME280;39583;54.682;30.662;2023-05-09T14:52:56;100698.72;;;17.14;23.86
53689;BME280;39583;54.682;30.662;2023-05-09T14:55:23;100699.00;;;17.36;24.42
53689;BME280;39583;54.682;30.662;2023-05-09T14:57:51;100704.69;;;17.46;24.18
53689;BME280;39583;54.682;30.662;2023-05-09T15:00:20;100699.88;;;17.60;24.03
53689;BME280;39583;54.682;30.662;2023-05-09T15:02:51;100699.97;;;17.65;23.63
53689;BME280;39583;54.682;30.662;2023-05-09T15:05:17;100691.19;;;17.51;23.61
53689;BME280;39583;54.682;30.662;2023-05-09T15:07:43;100693.81;;;17.46;24.10
53689;BME280;39583;54.682;30.662;2023-05-09T15:10:09;100694.81;;;17.75;24.31
53689;BME280;39583;54.682;30.662;2023-05-09T15:12:36;100687.66;;;18.09;23.62
53689;BME280;39583;54.682;30.662;2023-05-09T15:15:13;100694.78;;;18.10;23.50
53689;BME280;39583;54.682;30.662;2023-05-09T15:17:41;100692.75;;;18.17;23.47
53689;BME280;39583;54.682;30.662;2023-05-09T15:20:07;100687.59;;;18.33;23.33
53689;BME280;39583;54.682;30.662;2023-05-09T15:22:33;100683.53;;;18.47;23.62
53689;BME280;39583;54.682;30.662;2023-05-09T15:25:00;100681.53;;;18.42;23.68
53689;BME280;39583;54.682;30.662;2023-05-09T15:27:27;100676.94;;;18.31;23.77
53689;BME280;39583;54.682;30.662;2023-05-09T15:29:53;100674.41;;;18.01;24.06
53689;BME280;39583;54.682;30.662;2023-05-09T15:32:19;100673.69;;;17.59;24.35
53689;BME280;39583;54.682;30.662;2023-05-09T15:34:45;100665.25;;;17.25;24.38
53689;BME280;39583;54.682;30.662;2023-05-09T15:37:12;100673.81;;;16.99;24.51
53689;BME280;39583;54.682;30.662;2023-05-09T15:39:38;100678.88;;;16.65;24.72
53689;BME280;39583;54.682;30.662;2023-05-09T15:42:11;100678.38;;;16.38;24.99
53689;BME280;39583;54.682;30.662;2023-05-09T15:44:38;100671.78;;;16.16;25.38
53689;BME280;39583;54.682;30.662;2023-05-09T15:47:06;100671.94;;;16.03;25.00
53689;BME280;39583;54.682;30.662;2023-05-09T15:49:32;100671.38;;;15.94;24.99
53689;BME280;39583;54.682;30.662;2023-05-09T15:52:04;100660.72;;;15.74;25.64
53689;BME280;39583;54.682;30.662;2023-05-09T15:54:31;100643.56;;;15.55;25.51
53689;BME280;39583;54.682;30.662;2023-05-09T15:56:57;100660.44;;;15.57;25.61
53689;BME280;39583;54.682;30.662;2023-05-09T15:59:24;100641.19;;;15.41;25.97
53689;BME280;39583;54.682;30.662;2023-05-09T16:01:52;100659.28;;;15.47;26.03
53689;BME280;39583;54.682;30.662;2023-05-09T16:04:18;100655.31;;;15.92;25.55
53689;BME280;39583;54.682;30.662;2023-05-09T16:06:46;100646.25;;;15.80;25.86
53689;BME280;39583;54.682;30.662;2023-05-09T16:09:12;100655.00;;;15.57;25.76
53689;BME280;39583;54.682;30.662;2023-05-09T16:11:40;100650.22;;;15.34;26.06
53689;BME280;39583;54.682;30.662;2023-05-09T16:14:06;100632.78;;;14.99;26.27
53689;BME280;39583;54.682;30.662;2023-05-09T16:16:37;100652.00;;;14.91;26.55
53689;BME280;39583;54.682;30.662;2023-05-09T16:19:06;100649.84;;;14.74;26.81
53689;BME280;39583;54.682;30.662;2023-05-09T16:21:34;100660.25;;;14.71;26.86
53689;BME280;39583;54.682;30.662;2023-05-09T16:24:03;100658.66;;;14.63;26.95
53689;BME280;39583;54.682;30.662;2023-05-09T16:26:29;100655.13;;;14.56;27.33
53689;BME280;39583;54.682;30.662;2023-05-09T16:28:56;100644.16;;;14.44;27.53
53689;BME280;39583;54.682;30.662;2023-05-09T16:31:24;100648.06;;;14.55;27.56
53689;BME280;39583;54.682;30.662;2023-05-09T16:33:51;100646.47;;;14.79;27.69
53689;BME280;39583;54.682;30.662;2023-05-09T16:36:17;100638.69;;;15.14;27.56
53689;BME280;39583;54.682;30.662;2023-05-09T16:38:43;100637.53;;;15.28;27.62
53689;BME280;39583;54.682;30.662;2023-05-09T16:41:09;100639.97;;;15.12;27.69
53689;BME280;39583;54.682;30.662;2023-05-09T16:43:35;100634.34;;;14.82;28.29
53689;BME280;39583;54.682;30.662;2023-05-09T16:46:01;100638.31;;;14.48;28.73
53689;BME280;39583;54.682;30.662;2023-05-09T16:48:27;100640.91;;;14.16;29.26
53689;BME280;39583;54.682;30.662;2023-05-09T16:50:53;100641.41;;;13.93;29.63
53689;BME280;39583;54.682;30.662;2023-05-09T16:53:19;100640.22;;;13.76;30.09
53689;BME280;39583;54.682;30.662;2023-05-09T16:55:48;100642.75;;;13.57;30.46
53689;BME280;39583;54.682;30.662;2023-05-09T16:58:14;100643.19;;;13.41;30.84
53689;BME280;39583;54.682;30.662;2023-05-09T17:00:41;100632.38;;;13.21;31.11
53689;BME280;39583;54.682;30.662;2023-05-09T17:03:07;100636.31;;;13.06;31.61
53689;BME280;39583;54.682;30.662;2023-05-09T17:05:33;100640.25;;;12.90;32.02
53689;BME280;39583;54.682;30.662;2023-05-09T17:07:59;100642.13;;;13.03;32.07
53689;BME280;39583;54.682;30.662;2023-05-09T17:10:25;100645.69;;;13.49;31.63
53689;BME280;39583;54.682;30.662;2023-05-09T17:12:51;100644.00;;;13.48;31.74
53689;BME280;39583;54.682;30.662;2023-05-09T17:15:18;100635.47;;;13.05;32.31
53689;BME280;39583;54.682;30.662;2023-05-09T17:17:44;100651.19;;;12.62;33.24
53689;BME280;39583;54.682;30.662;2023-05-09T17:20:12;100645.66;;;12.22;33.74
53689;BME280;39583;54.682;30.662;2023-05-09T17:22:38;100637.03;;;11.92;34.26
53689;BME280;39583;54.682;30.662;2023-05-09T17:25:05;100639.97;;;11.69;34.83
53689;BME280;39583;54.682;30.662;2023-05-09T17:27:31;100642.13;;;11.46;35.29
53689;BME280;39583;54.682;30.662;2023-05-09T17:29:59;100644.22;;;11.22;35.67
53689;BME280;39583;54.682;30.662;2023-05-09T17:32:25;100639.47;;;11.03;36.08
53689;BME280;39583;54.682;30.662;2023-05-09T17:34:51;100641.53;;;10.80;36.44
53689;BME280;39583;54.682;30.662;2023-05-09T17:37:18;100647.97;;;10.57;37.13
53689;BME280;39583;54.682;30.662;2023-05-09T17:39:44;100652.22;;;10.30;37.99
53689;BME280;39583;54.682;30.662;2023-05-09T17:42:12;100649.63;;;9.93;38.33
53689;BME280;39583;54.682;30.662;2023-05-09T17:44:38;100653.69;;;9.74;38.45
53689;BME280;39583;54.682;30.662;2023-05-09T17:47:05;100658.81;;;9.54;39.29
53689;BME280;39583;54.682;30.662;2023-05-09T17:49:32;100658.97;;;9.38;39.59
53689;BME280;39583;54.682;30.662;2023-05-09T17:52:01;100653.09;;;9.20;39.88
53689;BME280;39583;54.682;30.662;2023-05-09T17:54:27;100652.03;;;9.06;40.34
53689;BME280;39583;54.682;30.662;2023-05-09T17:56:54;100658.84;;;8.94;41.00
53689;BME280;39583;54.682;30.662;2023-05-09T17:59:26;100651.19;;;8.82;41.11
53689;BME280;39583;54.682;30.662;2023-05-09T18:01:53;100668.03;;;8.76;41.50
53689;BME280;39583;54.682;30.662;2023-05-09T18:04:20;100671.44;;;8.70;41.70
53689;BME280;39583;54.682;30.662;2023-05-09T18:06:48;100660.41;;;8.65;41.80
53689;BME280;39583;54.682;30.662;2023-05-09T18:09:14;100671.56;;;8.77;41.33
53689;BME280;39583;54.682;30.662;2023-05-09T18:11:40;100668.69;;;8.78;41.49
53689;BME280;39583;54.682;30.662;2023-05-09T18:14:07;100670.91;;;8.75;41.65
53689;BME280;39583;54.682;30.662;2023-05-09T18:16:33;100673.16;;;8.63;42.25
53689;BME280;39583;54.682;30.662;2023-05-09T18:18:59;100673.56;;;8.52;42.37
53689;BME280;39583;54.682;30.662;2023-05-09T18:21:26;100684.00;;;8.47;42.50
53689;BME280;39583;54.682;30.662;2023-05-09T18:23:53;100676.09;;;8.45;42.36
53689;BME280;39583;54.682;30.662;2023-05-09T18:26:19;100673.28;;;8.47;42.23
53689;BME280;39583;54.682;30.662;2023-05-09T18:28:46;100672.94;;;8.42;42.14
53689;BME280;39583;54.682;30.662;2023-05-09T18:31:12;100679.13;;;8.50;41.93
53689;BME280;39583;54.682;30.662;2023-05-09T18:33:38;100684.84;;;8.47;42.17
53689;BME280;39583;54.682;30.662;2023-05-09T18:36:05;100674.44;;;8.44;42.11
53689;BME280;39583;54.682;30.662;2023-05-09T18:38:34;100674.97;;;8.40;42.24
53689;BME280;39583;54.682;30.662;2023-05-09T18:41:05;100676.16;;;8.29;42.79
53689;BME280;39583;54.682;30.662;2023-05-09T18:43:34;100674.03;;;8.24;42.61
53689;BME280;39583;54.682;30.662;2023-05-09T18:46:01;100676.88;;;8.23;42.70
53689;BME280;39583;54.682;30.662;2023-05-09T18:48:30;100680.88;;;8.27;42.73